Search for airport 
image banner adimage banner ad
image banner ad

LEVITR - Villanueva del Trabuco

Located in , Spain

ICAO - , IATA -

Data provided by Airmate  

General information

Coordinates: N37°3'49" W4°19'49"
Elevation is 2416 feet MSL.
 
Rated:
View ratings: [VIEW]


View others Airports in Málaga

Operational data

Open for public use
Current time UTC:
Current local time:
Weather at : LEMG - Malaga/Costa Del Sol ( 46 km )
METAR: LEMG 210230Z 29009KT CAVOK 12/08 Q1016 NOSIG
TAF: TAF LEMG 202300Z 2100/2124 29006KT 9999 FEW035 TX22/2113Z TN11/2106Z BECMG 2111/2113 14006KT BECMG 2118/2121 29004KT
View NOTAMs / SUP AIP / TFR affecting this airport [VIEW]
Communications frequencies: [VIEW]

Runways:

RWY identifierQFULength (ft)Width (ft)SurfaceLDA (ft)
219680DIRT
039680DIRT

Airport contact information

Address: Spain

Satellite view of LEVITR